sensor_id;sensor_type;location;lat;lon;timestamp;pressure;altitude;pressure_sealevel;temperature;humidity
68822;BME280;55834;50.870;4.606;2023-05-12T00:01:19;100916.56;;;13.64;58.95
68822;BME280;55834;50.870;4.606;2023-05-12T00:03:44;100913.19;;;13.59;59.29
68822;BME280;55834;50.870;4.606;2023-05-12T00:06:10;100913.41;;;13.29;59.16
68822;BME280;55834;50.870;4.606;2023-05-12T00:08:36;100911.72;;;13.26;60.33
68822;BME280;55834;50.870;4.606;2023-05-12T00:11:02;100921.25;;;13.32;60.89
68822;BME280;55834;50.870;4.606;2023-05-12T00:13:27;100923.59;;;13.40;60.47
68822;BME280;55834;50.870;4.606;2023-05-12T00:15:53;100914.44;;;13.48;60.04
68822;BME280;55834;50.870;4.606;2023-05-12T00:18:21;100918.50;;;13.59;59.98
68822;BME280;55834;50.870;4.606;2023-05-12T00:20:47;100910.09;;;13.46;59.08
68822;BME280;55834;50.870;4.606;2023-05-12T00:23:12;100914.03;;;13.36;60.54
68822;BME280;55834;50.870;4.606;2023-05-12T00:25:38;100909.25;;;13.45;59.76
68822;BME280;55834;50.870;4.606;2023-05-12T00:28:04;100904.13;;;13.41;59.62
68822;BME280;55834;50.870;4.606;2023-05-12T00:30:29;100907.97;;;13.08;59.96
68822;BME280;55834;50.870;4.606;2023-05-12T00:32:54;100912.13;;;12.91;61.05
68822;BME280;55834;50.870;4.606;2023-05-12T00:35:20;100906.88;;;12.89;61.00
68822;BME280;55834;50.870;4.606;2023-05-12T00:37:45;100912.38;;;13.08;61.33
68822;BME280;55834;50.870;4.606;2023-05-12T00:40:11;100904.59;;;12.78;61.39
68822;BME280;55834;50.870;4.606;2023-05-12T00:42:37;100898.38;;;12.28;62.72
68822;BME280;55834;50.870;4.606;2023-05-12T00:45:03;100903.75;;;12.78;60.96
68822;BME280;55834;50.870;4.606;2023-05-12T00:47:29;100903.88;;;13.00;61.13
68822;BME280;55834;50.870;4.606;2023-05-12T00:49:54;100906.97;;;12.06;62.66
68822;BME280;55834;50.870;4.606;2023-05-12T00:52:20;100904.75;;;11.92;64.37
68822;BME280;55834;50.870;4.606;2023-05-12T00:54:47;100895.22;;;12.41;64.46
68822;BME280;55834;50.870;4.606;2023-05-12T00:57:13;100897.13;;;12.64;61.99
68822;BME280;55834;50.870;4.606;2023-05-12T00:59:38;100900.03;;;11.76;64.80
68822;BME280;55834;50.870;4.606;2023-05-12T01:02:04;100891.41;;;12.24;64.14
68822;BME280;55834;50.870;4.606;2023-05-12T01:04:30;100891.22;;;12.56;64.92
68822;BME280;55834;50.870;4.606;2023-05-12T01:07:05;100884.88;;;12.87;62.96
68822;BME280;55834;50.870;4.606;2023-05-12T01:09:34;100891.03;;;12.87;62.32
68822;BME280;55834;50.870;4.606;2023-05-12T01:11:59;100885.88;;;13.08;61.69
68822;BME280;55834;50.870;4.606;2023-05-12T01:14:25;100888.81;;;13.00;60.56
68822;BME280;55834;50.870;4.606;2023-05-12T01:16:52;100890.50;;;11.39;65.25
68822;BME280;55834;50.870;4.606;2023-05-12T01:19:43;100880.63;;;12.03;64.38
68822;BME280;55834;50.870;4.606;2023-05-12T01:22:10;100884.91;;;12.34;62.93
68822;BME280;55834;50.870;4.606;2023-05-12T01:24:58;100888.84;;;11.94;64.83
68822;BME280;55834;50.870;4.606;2023-05-12T01:27:25;100886.53;;;12.11;65.65
68822;BME280;55834;50.870;4.606;2023-05-12T01:29:53;100880.47;;;11.80;64.66
68822;BME280;55834;50.870;4.606;2023-05-12T01:32:20;100882.94;;;11.26;67.24
68822;BME280;55834;50.870;4.606;2023-05-12T01:34:46;100881.84;;;10.35;72.07
68822;BME280;55834;50.870;4.606;2023-05-12T01:37:11;100884.41;;;10.73;70.39
68822;BME280;55834;50.870;4.606;2023-05-12T01:39:37;100883.78;;;10.97;68.96
68822;BME280;55834;50.870;4.606;2023-05-12T01:42:03;100887.09;;;10.37;70.37
68822;BME280;55834;50.870;4.606;2023-05-12T01:44:29;100894.69;;;9.36;74.64
68822;BME280;55834;50.870;4.606;2023-05-12T01:46:55;100892.31;;;9.20;75.58
68822;BME280;55834;50.870;4.606;2023-05-12T01:49:21;100880.13;;;10.69;71.93
68822;BME280;55834;50.870;4.606;2023-05-12T01:51:46;100874.94;;;10.30;70.82
68822;BME280;55834;50.870;4.606;2023-05-12T01:54:12;100882.72;;;9.99;72.16
68822;BME280;55834;50.870;4.606;2023-05-12T01:56:37;100883.38;;;10.80;70.41
68822;BME280;55834;50.870;4.606;2023-05-12T01:59:02;100885.66;;;10.24;71.97
68822;BME280;55834;50.870;4.606;2023-05-12T02:01:28;100879.78;;;10.48;71.19
68822;BME280;55834;50.870;4.606;2023-05-12T02:03:54;100879.56;;;10.56;71.69
68822;BME280;55834;50.870;4.606;2023-05-12T02:06:20;100883.66;;;11.32;69.64
68822;BME280;55834;50.870;4.606;2023-05-12T02:08:46;100884.66;;;11.27;67.78
68822;BME280;55834;50.870;4.606;2023-05-12T02:11:12;100881.72;;;11.38;68.17
68822;BME280;55834;50.870;4.606;2023-05-12T02:13:37;100878.81;;;11.16;68.00
68822;BME280;55834;50.870;4.606;2023-05-12T02:16:03;100874.34;;;11.79;66.44
68822;BME280;55834;50.870;4.606;2023-05-12T02:18:28;100872.78;;;11.11;67.92
68822;BME280;55834;50.870;4.606;2023-05-12T02:20:54;100876.34;;;11.41;67.00
68822;BME280;55834;50.870;4.606;2023-05-12T02:23:19;100878.16;;;11.08;67.67
68822;BME280;55834;50.870;4.606;2023-05-12T02:25:45;100874.91;;;11.29;68.24
68822;BME280;55834;50.870;4.606;2023-05-12T02:28:10;100871.16;;;11.07;67.61
68822;BME280;55834;50.870;4.606;2023-05-12T02:30:37;100861.06;;;11.21;69.03
68822;BME280;55834;50.870;4.606;2023-05-12T02:33:03;100862.00;;;11.48;67.35
68822;BME280;55834;50.870;4.606;2023-05-12T02:35:32;100862.41;;;11.35;68.60
68822;BME280;55834;50.870;4.606;2023-05-12T02:37:58;100865.97;;;11.34;67.82
68822;BME280;55834;50.870;4.606;2023-05-12T02:40:23;100859.91;;;11.30;67.85
68822;BME280;55834;50.870;4.606;2023-05-12T02:42:48;100858.69;;;11.42;67.69
68822;BME280;55834;50.870;4.606;2023-05-12T02:45:14;100857.69;;;10.16;70.99
68822;BME280;55834;50.870;4.606;2023-05-12T02:47:39;100857.09;;;10.04;72.61
68822;BME280;55834;50.870;4.606;2023-05-12T02:50:05;100860.44;;;10.46;73.14
68822;BME280;55834;50.870;4.606;2023-05-12T02:52:31;100861.13;;;9.83;74.41
68822;BME280;55834;50.870;4.606;2023-05-12T02:54:56;100858.34;;;10.60;71.03
68822;BME280;55834;50.870;4.606;2023-05-12T02:57:22;100853.25;;;11.17;69.37
68822;BME280;55834;50.870;4.606;2023-05-12T02:59:47;100852.84;;;11.01;69.34
68822;BME280;55834;50.870;4.606;2023-05-12T03:02:13;100857.78;;;10.13;71.12
68822;BME280;55834;50.870;4.606;2023-05-12T03:04:38;100859.88;;;9.99;72.59
68822;BME280;55834;50.870;4.606;2023-05-12T03:07:04;100863.84;;;9.39;74.76
68822;BME280;55834;50.870;4.606;2023-05-12T03:09:29;100858.59;;;9.38;73.81
68822;BME280;55834;50.870;4.606;2023-05-12T03:11:54;100857.22;;;9.62;74.61
68822;BME280;55834;50.870;4.606;2023-05-12T03:14:20;100857.19;;;9.20;74.03
68822;BME280;55834;50.870;4.606;2023-05-12T03:16:45;100844.13;;;9.96;72.48
68822;BME280;55834;50.870;4.606;2023-05-12T03:19:11;100852.69;;;10.40;69.51
68822;BME280;55834;50.870;4.606;2023-05-12T03:21:36;100861.75;;;8.17;76.03
68822;BME280;55834;50.870;4.606;2023-05-12T03:24:02;100853.50;;;8.85;74.59
68822;BME280;55834;50.870;4.606;2023-05-12T03:26:27;100852.81;;;8.27;75.37
68822;BME280;55834;50.870;4.606;2023-05-12T03:28:53;100846.84;;;9.54;73.60
68822;BME280;55834;50.870;4.606;2023-05-12T03:31:18;100839.78;;;9.55;72.65
68822;BME280;55834;50.870;4.606;2023-05-12T03:33:43;100842.91;;;9.33;73.07
68822;BME280;55834;50.870;4.606;2023-05-12T03:36:09;100845.34;;;8.97;74.55
68822;BME280;55834;50.870;4.606;2023-05-12T03:38:34;100834.47;;;9.16;74.59
68822;BME280;55834;50.870;4.606;2023-05-12T03:41:06;100838.97;;;9.53;71.49
68822;BME280;55834;50.870;4.606;2023-05-12T03:43:31;100839.47;;;8.85;75.55
68822;BME280;55834;50.870;4.606;2023-05-12T03:45:57;100832.38;;;9.72;72.50
68822;BME280;55834;50.870;4.606;2023-05-12T03:48:23;100836.75;;;9.31;72.23
68822;BME280;55834;50.870;4.606;2023-05-12T03:50:48;100833.28;;;9.29;73.19
68822;BME280;55834;50.870;4.606;2023-05-12T03:53:14;100825.72;;;9.56;72.77
68822;BME280;55834;50.870;4.606;2023-05-12T03:55:40;100827.25;;;10.37;71.62
68822;BME280;55834;50.870;4.606;2023-05-12T03:58:06;100822.34;;;10.56;68.63
68822;BME280;55834;50.870;4.606;2023-05-12T04:00:31;100824.97;;;10.58;68.85
68822;BME280;55834;50.870;4.606;2023-05-12T04:02:57;100830.38;;;10.86;66.43
68822;BME280;55834;50.870;4.606;2023-05-12T04:05:23;100819.41;;;10.69;66.54
68822;BME280;55834;50.870;4.606;2023-05-12T04:07:48;100814.53;;;10.84;68.01
68822;BME280;55834;50.870;4.606;2023-05-12T04:10:14;100818.66;;;10.64;66.93
68822;BME280;55834;50.870;4.606;2023-05-12T04:12:39;100817.47;;;9.69;69.00
68822;BME280;55834;50.870;4.606;2023-05-12T04:15:05;100817.34;;;9.38;70.17
68822;BME280;55834;50.870;4.606;2023-05-12T04:17:31;100807.16;;;9.98;70.83
68822;BME280;55834;50.870;4.606;2023-05-12T04:19:56;100807.16;;;9.98;69.93
68822;BME280;55834;50.870;4.606;2023-05-12T04:22:22;100802.03;;;10.26;69.32
68822;BME280;55834;50.870;4.606;2023-05-12T04:24:47;100808.88;;;9.99;68.56
68822;BME280;55834;50.870;4.606;2023-05-12T04:27:13;100811.56;;;10.66;66.38
68822;BME280;55834;50.870;4.606;2023-05-12T04:29:38;100808.66;;;10.08;67.24
68822;BME280;55834;50.870;4.606;2023-05-12T04:32:04;100805.22;;;10.38;67.82
68822;BME280;55834;50.870;4.606;2023-05-12T04:34:30;100799.06;;;10.72;67.37
68822;BME280;55834;50.870;4.606;2023-05-12T04:36:55;100800.88;;;11.00;66.66
68822;BME280;55834;50.870;4.606;2023-05-12T04:39:21;100809.69;;;10.36;66.40
68822;BME280;55834;50.870;4.606;2023-05-12T04:41:46;100804.25;;;10.43;67.67
68822;BME280;55834;50.870;4.606;2023-05-12T04:44:11;100807.53;;;9.82;70.22
68822;BME280;55834;50.870;4.606;2023-05-12T04:46:37;100804.44;;;10.69;67.38
68822;BME280;55834;50.870;4.606;2023-05-12T04:49:02;100806.41;;;10.61;66.75
68822;BME280;55834;50.870;4.606;2023-05-12T04:51:27;100800.31;;;10.90;65.93
68822;BME280;55834;50.870;4.606;2023-05-12T04:53:53;100815.94;;;10.98;65.00
68822;BME280;55834;50.870;4.606;2023-05-12T04:56:18;100812.00;;;11.11;66.23
68822;BME280;55834;50.870;4.606;2023-05-12T04:58:44;100805.44;;;11.54;66.06
68822;BME280;55834;50.870;4.606;2023-05-12T05:01:09;100803.22;;;11.40;64.10
68822;BME280;55834;50.870;4.606;2023-05-12T05:03:36;100819.03;;;11.42;64.39
68822;BME280;55834;50.870;4.606;2023-05-12T05:06:02;100819.91;;;10.83;66.87
68822;BME280;55834;50.870;4.606;2023-05-12T05:08:27;100817.25;;;10.83;65.68
68822;BME280;55834;50.870;4.606;2023-05-12T05:10:52;100826.41;;;10.70;64.60
68822;BME280;55834;50.870;4.606;2023-05-12T05:13:18;100819.16;;;10.09;68.04
68822;BME280;55834;50.870;4.606;2023-05-12T05:15:50;100832.16;;;10.17;68.53
68822;BME280;55834;50.870;4.606;2023-05-12T05:18:16;100822.47;;;9.44;69.56
68822;BME280;55834;50.870;4.606;2023-05-12T05:20:41;100817.22;;;9.82;70.80
68822;BME280;55834;50.870;4.606;2023-05-12T05:23:06;100816.38;;;10.51;68.55
68822;BME280;55834;50.870;4.606;2023-05-12T05:25:33;100821.03;;;11.04;66.73
68822;BME280;55834;50.870;4.606;2023-05-12T05:27:58;100816.63;;;11.34;66.14
68822;BME280;55834;50.870;4.606;2023-05-12T05:30:24;100823.66;;;10.74;64.67
68822;BME280;55834;50.870;4.606;2023-05-12T05:32:49;100829.41;;;10.22;66.76
68822;BME280;55834;50.870;4.606;2023-05-12T05:35:15;100826.22;;;10.43;66.98
68822;BME280;55834;50.870;4.606;2023-05-12T05:37:40;100823.78;;;10.35;67.19
68822;BME280;55834;50.870;4.606;2023-05-12T05:40:06;100821.31;;;10.64;66.89
68822;BME280;55834;50.870;4.606;2023-05-12T05:42:32;100823.53;;;10.45;68.37
68822;BME280;55834;50.870;4.606;2023-05-12T05:44:57;100823.09;;;10.27;67.75
68822;BME280;55834;50.870;4.606;2023-05-12T05:47:23;100818.78;;;10.59;66.63
68822;BME280;55834;50.870;4.606;2023-05-12T05:49:48;100824.56;;;11.04;65.24
68822;BME280;55834;50.870;4.606;2023-05-12T05:52:13;100815.41;;;11.16;64.88
68822;BME280;55834;50.870;4.606;2023-05-12T05:54:39;100819.56;;;11.53;65.31
68822;BME280;55834;50.870;4.606;2023-05-12T05:57:04;100818.84;;;11.48;63.20
68822;BME280;55834;50.870;4.606;2023-05-12T05:59:30;100824.59;;;11.03;65.47
68822;BME280;55834;50.870;4.606;2023-05-12T06:01:56;100825.84;;;10.90;64.74
68822;BME280;55834;50.870;4.606;2023-05-12T06:04:22;100823.16;;;10.60;65.94
68822;BME280;55834;50.870;4.606;2023-05-12T06:06:47;100824.59;;;10.03;67.61
68822;BME280;55834;50.870;4.606;2023-05-12T06:09:12;100822.81;;;10.39;66.39
68822;BME280;55834;50.870;4.606;2023-05-12T06:11:39;100823.44;;;10.49;66.58
68822;BME280;55834;50.870;4.606;2023-05-12T06:14:05;100818.50;;;11.01;67.10
68822;BME280;55834;50.870;4.606;2023-05-12T06:16:30;100820.88;;;10.79;65.37
68822;BME280;55834;50.870;4.606;2023-05-12T06:18:55;100823.22;;;9.87;66.78
68822;BME280;55834;50.870;4.606;2023-05-12T06:21:21;100818.94;;;9.83;69.15
68822;BME280;55834;50.870;4.606;2023-05-12T06:23:46;100816.06;;;9.93;69.49
68822;BME280;55834;50.870;4.606;2023-05-12T06:26:12;100824.78;;;9.18;71.70
68822;BME280;55834;50.870;4.606;2023-05-12T06:28:37;100821.47;;;9.48;69.84
68822;BME280;55834;50.870;4.606;2023-05-12T06:31:05;100813.41;;;9.93;70.57
68822;BME280;55834;50.870;4.606;2023-05-12T06:33:31;100817.19;;;10.17;70.33
68822;BME280;55834;50.870;4.606;2023-05-12T06:35:57;100819.91;;;10.83;67.62
68822;BME280;55834;50.870;4.606;2023-05-12T06:38:22;100816.44;;;10.79;66.13
68822;BME280;55834;50.870;4.606;2023-05-12T06:40:48;100827.16;;;9.69;70.65
68822;BME280;55834;50.870;4.606;2023-05-12T06:43:13;100818.59;;;10.65;68.88
68822;BME280;55834;50.870;4.606;2023-05-12T06:45:39;100825.94;;;10.87;67.30
68822;BME280;55834;50.870;4.606;2023-05-12T06:48:04;100815.28;;;11.21;66.75
68822;BME280;55834;50.870;4.606;2023-05-12T06:50:30;100816.06;;;11.52;66.07
68822;BME280;55834;50.870;4.606;2023-05-12T06:52:55;100813.81;;;11.68;63.92
68822;BME280;55834;50.870;4.606;2023-05-12T06:55:21;100816.75;;;11.87;64.06
68822;BME280;55834;50.870;4.606;2023-05-12T06:57:47;100813.38;;;11.82;62.57
68822;BME280;55834;50.870;4.606;2023-05-12T07:00:13;100818.28;;;11.38;65.21
68822;BME280;55834;50.870;4.606;2023-05-12T07:02:38;100816.47;;;11.68;64.62
68822;BME280;55834;50.870;4.606;2023-05-12T07:05:04;100819.97;;;11.41;65.29
68822;BME280;55834;50.870;4.606;2023-05-12T07:07:29;100819.22;;;11.65;65.61
68822;BME280;55834;50.870;4.606;2023-05-12T07:09:55;100815.56;;;11.12;65.55
68822;BME280;55834;50.870;4.606;2023-05-12T07:12:21;100814.63;;;11.13;65.73
68822;BME280;55834;50.870;4.606;2023-05-12T07:14:46;100808.66;;;11.06;65.86
68822;BME280;55834;50.870;4.606;2023-05-12T07:17:12;100803.19;;;11.42;66.56
68822;BME280;55834;50.870;4.606;2023-05-12T07:19:37;100810.56;;;11.60;64.72
68822;BME280;55834;50.870;4.606;2023-05-12T07:22:04;100811.69;;;11.51;63.70
68822;BME280;55834;50.870;4.606;2023-05-12T07:24:29;100813.31;;;11.84;64.32
68822;BME280;55834;50.870;4.606;2023-05-12T07:26:55;100808.66;;;11.92;63.73
68822;BME280;55834;50.870;4.606;2023-05-12T07:29:21;100811.03;;;11.43;64.95
68822;BME280;55834;50.870;4.606;2023-05-12T07:31:46;100805.66;;;11.76;65.35
68822;BME280;55834;50.870;4.606;2023-05-12T07:34:12;100803.63;;;12.11;64.93
68822;BME280;55834;50.870;4.606;2023-05-12T07:36:37;100807.03;;;12.14;62.34
68822;BME280;55834;50.870;4.606;2023-05-12T07:39:03;100810.56;;;12.40;63.28
68822;BME280;55834;50.870;4.606;2023-05-12T07:41:28;100810.94;;;12.54;62.30
68822;BME280;55834;50.870;4.606;2023-05-12T07:43:53;100813.75;;;12.25;62.72
68822;BME280;55834;50.870;4.606;2023-05-12T07:46:19;100806.22;;;12.39;62.87
68822;BME280;55834;50.870;4.606;2023-05-12T07:48:44;100809.13;;;12.56;62.80
68822;BME280;55834;50.870;4.606;2023-05-12T07:51:10;100816.50;;;12.22;61.93
68822;BME280;55834;50.870;4.606;2023-05-12T07:53:35;100812.03;;;11.97;64.23
68822;BME280;55834;50.870;4.606;2023-05-12T07:56:01;100813.84;;;12.47;64.88
68822;BME280;55834;50.870;4.606;2023-05-12T07:58:26;100812.41;;;12.38;62.99
68822;BME280;55834;50.870;4.606;2023-05-12T08:00:52;100818.91;;;12.03;62.56
68822;BME280;55834;50.870;4.606;2023-05-12T08:03:18;100814.50;;;12.28;63.29
68822;BME280;55834;50.870;4.606;2023-05-12T08:05:44;100804.28;;;11.91;63.72
68822;BME280;55834;50.870;4.606;2023-05-12T08:08:09;100814.03;;;12.42;62.39
68822;BME280;55834;50.870;4.606;2023-05-12T08:10:41;100813.81;;;12.73;62.24
68822;BME280;55834;50.870;4.606;2023-05-12T08:13:06;100814.34;;;11.80;63.27
68822;BME280;55834;50.870;4.606;2023-05-12T08:15:32;100818.03;;;10.87;67.45
68822;BME280;55834;50.870;4.606;2023-05-12T08:17:57;100812.03;;;11.41;66.80
68822;BME280;55834;50.870;4.606;2023-05-12T08:20:23;100820.50;;;11.22;67.38
68822;BME280;55834;50.870;4.606;2023-05-12T08:22:48;100816.63;;;11.64;66.70
68822;BME280;55834;50.870;4.606;2023-05-12T08:25:15;100811.75;;;12.31;64.97
68822;BME280;55834;50.870;4.606;2023-05-12T08:27:40;100825.84;;;12.83;64.99
68822;BME280;55834;50.870;4.606;2023-05-12T08:30:06;100820.00;;;12.74;63.36
68822;BME280;55834;50.870;4.606;2023-05-12T08:32:32;100822.25;;;12.84;62.96
68822;BME280;55834;50.870;4.606;2023-05-12T08:34:57;100831.81;;;10.96;67.79
68822;BME280;55834;50.870;4.606;2023-05-12T08:37:22;100829.25;;;12.35;66.82
68822;BME280;55834;50.870;4.606;2023-05-12T08:39:48;100835.56;;;12.83;64.94
68822;BME280;55834;50.870;4.606;2023-05-12T08:44:45;100843.16;;;13.17;63.25
68822;BME280;55834;50.870;4.606;2023-05-12T08:47:11;100842.66;;;13.53;62.12
68822;BME280;55834;50.870;4.606;2023-05-12T08:49:38;100844.63;;;13.24;60.79
68822;BME280;55834;50.870;4.606;2023-05-12T08:52:04;100853.88;;;12.89;60.75
68822;BME280;55834;50.870;4.606;2023-05-12T08:54:31;100852.81;;;12.43;63.22
68822;BME280;55834;50.870;4.606;2023-05-12T08:56:58;100854.06;;;12.59;62.17
68822;BME280;55834;50.870;4.606;2023-05-12T08:59:23;100859.81;;;12.96;62.67
68822;BME280;55834;50.870;4.606;2023-05-12T09:01:49;100860.53;;;13.48;62.62
68822;BME280;55834;50.870;4.606;2023-05-12T09:04:15;100856.75;;;13.77;61.50
68822;BME280;55834;50.870;4.606;2023-05-12T09:06:44;100862.59;;;13.40;60.49
68822;BME280;55834;50.870;4.606;2023-05-12T09:09:12;100864.56;;;12.62;61.55
68822;BME280;55834;50.870;4.606;2023-05-12T09:11:39;100862.16;;;11.73;67.00
68822;BME280;55834;50.870;4.606;2023-05-12T09:14:17;100864.13;;;12.48;65.18
68822;BME280;55834;50.870;4.606;2023-05-12T09:16:49;100866.22;;;12.90;64.36
68822;BME280;55834;50.870;4.606;2023-05-12T09:19:19;100864.59;;;12.86;63.42
68822;BME280;55834;50.870;4.606;2023-05-12T09:21:46;100864.66;;;12.59;63.88
68822;BME280;55834;50.870;4.606;2023-05-12T09:24:12;100870.06;;;12.81;62.40
68822;BME280;55834;50.870;4.606;2023-05-12T09:26:48;100874.00;;;12.95;60.49
68822;BME280;55834;50.870;4.606;2023-05-12T09:29:14;100874.97;;;13.17;60.80
68822;BME280;55834;50.870;4.606;2023-05-12T09:31:51;100881.81;;;13.46;60.83
68822;BME280;55834;50.870;4.606;2023-05-12T09:34:17;100882.13;;;13.37;60.37
68822;BME280;55834;50.870;4.606;2023-05-12T09:36:43;100882.94;;;13.16;61.06
68822;BME280;55834;50.870;4.606;2023-05-12T09:39:10;100882.91;;;13.17;61.29
68822;BME280;55834;50.870;4.606;2023-05-12T09:41:36;100891.66;;;11.60;64.56
68822;BME280;55834;50.870;4.606;2023-05-12T09:44:02;100880.94;;;12.20;63.55
68822;BME280;55834;50.870;4.606;2023-05-12T09:46:28;100895.50;;;12.34;63.01
68822;BME280;55834;50.870;4.606;2023-05-12T09:48:56;100891.69;;;12.42;63.67
68822;BME280;55834;50.870;4.606;2023-05-12T09:51:22;100895.13;;;12.96;63.17
68822;BME280;55834;50.870;4.606;2023-05-12T09:53:48;100894.41;;;13.16;61.69
68822;BME280;55834;50.870;4.606;2023-05-12T09:56:16;100898.88;;;13.39;62.07
68822;BME280;55834;50.870;4.606;2023-05-12T09:58:46;100897.50;;;13.52;59.02
68822;BME280;55834;50.870;4.606;2023-05-12T10:01:15;100896.81;;;13.71;60.31
68822;BME280;55834;50.870;4.606;2023-05-12T10:03:42;100896.84;;;13.93;58.17
68822;BME280;55834;50.870;4.606;2023-05-12T10:06:13;100900.03;;;13.79;58.50
68822;BME280;55834;50.870;4.606;2023-05-12T10:08:47;100897.03;;;13.65;61.09
68822;BME280;55834;50.870;4.606;2023-05-12T10:11:15;100902.03;;;13.96;60.09
68822;BME280;55834;50.870;4.606;2023-05-12T10:13:42;100917.06;;;13.48;59.47
68822;BME280;55834;50.870;4.606;2023-05-12T10:16:08;100907.19;;;13.77;59.49
68822;BME280;55834;50.870;4.606;2023-05-12T10:18:34;100908.06;;;13.99;59.40
68822;BME280;55834;50.870;4.606;2023-05-12T10:21:00;100905.28;;;14.25;58.42
68822;BME280;55834;50.870;4.606;2023-05-12T10:23:27;100907.09;;;14.24;58.90
68822;BME280;55834;50.870;4.606;2023-05-12T10:25:54;100903.13;;;14.56;58.58
68822;BME280;55834;50.870;4.606;2023-05-12T10:28:23;100905.34;;;14.45;58.98
68822;BME280;55834;50.870;4.606;2023-05-12T10:30:49;100905.50;;;14.83;58.80
68822;BME280;55834;50.870;4.606;2023-05-12T10:33:16;100910.41;;;14.92;56.66
68822;BME280;55834;50.870;4.606;2023-05-12T10:35:42;100904.22;;;15.32;57.66
68822;BME280;55834;50.870;4.606;2023-05-12T10:38:13;100906.97;;;15.29;57.37
68822;BME280;55834;50.870;4.606;2023-05-12T10:41:00;100897.69;;;15.77;58.48
68822;BME280;55834;50.870;4.606;2023-05-12T10:43:28;100901.09;;;16.17;56.78
68822;BME280;55834;50.870;4.606;2023-05-12T10:51:24;100912.66;;;16.35;54.76
68822;BME280;55834;50.870;4.606;2023-05-12T10:54:11;100899.38;;;16.16;54.00
68822;BME280;55834;50.870;4.606;2023-05-12T10:59:19;100901.53;;;16.62;52.57
68822;BME280;55834;50.870;4.606;2023-05-12T11:02:02;100908.75;;;15.87;54.23
68822;BME280;55834;50.870;4.606;2023-05-12T11:04:45;100906.47;;;16.52;54.73
68822;BME280;55834;50.870;4.606;2023-05-12T11:07:12;100913.91;;;16.45;53.48
68822;BME280;55834;50.870;4.606;2023-05-12T11:09:40;100913.72;;;15.76;55.26
68822;BME280;55834;50.870;4.606;2023-05-12T11:12:07;100914.59;;;15.76;52.92
68822;BME280;55834;50.870;4.606;2023-05-12T11:14:36;100922.56;;;15.76;53.27
68822;BME280;55834;50.870;4.606;2023-05-12T11:17:02;100914.34;;;16.00;54.08
68822;BME280;55834;50.870;4.606;2023-05-12T11:19:29;100932.41;;;14.11;58.02
68822;BME280;55834;50.870;4.606;2023-05-12T11:21:54;100942.31;;;13.60;60.42
68822;BME280;55834;50.870;4.606;2023-05-12T11:24:20;100939.88;;;13.77;60.22
68822;BME280;55834;50.870;4.606;2023-05-12T11:26:46;100924.13;;;13.96;58.96
68822;BME280;55834;50.870;4.606;2023-05-12T11:29:18;100948.28;;;12.67;62.82
68822;BME280;55834;50.870;4.606;2023-05-12T11:31:50;100943.88;;;12.92;64.77
68822;BME280;55834;50.870;4.606;2023-05-12T11:34:20;100946.53;;;11.83;69.08
68822;BME280;55834;50.870;4.606;2023-05-12T11:36:46;100950.72;;;11.60;68.29
68822;BME280;55834;50.870;4.606;2023-05-12T11:39:16;100955.56;;;11.44;68.27
68822;BME280;55834;50.870;4.606;2023-05-12T11:41:42;100948.03;;;12.19;67.26
68822;BME280;55834;50.870;4.606;2023-05-12T11:44:15;100948.25;;;12.93;64.62
68822;BME280;55834;50.870;4.606;2023-05-12T11:46:41;100949.56;;;12.27;69.07
68822;BME280;55834;50.870;4.606;2023-05-12T11:49:17;100951.63;;;12.17;68.01
68822;BME280;55834;50.870;4.606;2023-05-12T11:51:42;100958.09;;;11.47;70.01
68822;BME280;55834;50.870;4.606;2023-05-12T11:54:08;100955.25;;;11.55;69.76
68822;BME280;55834;50.870;4.606;2023-05-12T11:56:33;100948.38;;;12.35;67.46
68822;BME280;55834;50.870;4.606;2023-05-12T11:59:00;100959.59;;;12.17;68.64
68822;BME280;55834;50.870;4.606;2023-05-12T12:01:26;100955.16;;;12.72;68.07
68822;BME280;55834;50.870;4.606;2023-05-12T12:03:52;100958.31;;;11.72;69.47
68822;BME280;55834;50.870;4.606;2023-05-12T12:06:20;100958.09;;;12.90;65.95
68822;BME280;55834;50.870;4.606;2023-05-12T12:08:58;100965.38;;;12.56;67.60
68822;BME280;55834;50.870;4.606;2023-05-12T12:11:24;100960.59;;;13.43;66.05
68822;BME280;55834;50.870;4.606;2023-05-12T12:13:55;100969.53;;;13.65;62.62
68822;BME280;55834;50.870;4.606;2023-05-12T12:16:29;100968.06;;;14.04;64.91
68822;BME280;55834;50.870;4.606;2023-05-12T12:18:55;100970.41;;;14.57;62.94
68822;BME280;55834;50.870;4.606;2023-05-12T12:21:22;100961.53;;;14.34;61.27
68822;BME280;55834;50.870;4.606;2023-05-12T12:23:47;100962.00;;;14.44;62.33
68822;BME280;55834;50.870;4.606;2023-05-12T12:26:13;100974.38;;;14.23;61.76
68822;BME280;55834;50.870;4.606;2023-05-12T12:28:49;100959.66;;;15.01;59.27
68822;BME280;55834;50.870;4.606;2023-05-12T12:31:15;100961.06;;;15.09;61.89
68822;BME280;55834;50.870;4.606;2023-05-12T12:33:41;100964.16;;;14.78;60.58
68822;BME280;55834;50.870;4.606;2023-05-12T12:36:07;100964.31;;;14.96;60.60
68822;BME280;55834;50.870;4.606;2023-05-12T12:38:32;100969.88;;;14.47;60.10
68822;BME280;55834;50.870;4.606;2023-05-12T12:40:58;100984.69;;;14.09;60.43
68822;BME280;55834;50.870;4.606;2023-05-12T12:43:24;100971.00;;;14.63;59.01
68822;BME280;55834;50.870;4.606;2023-05-12T12:45:50;100980.72;;;13.97;62.92
68822;BME280;55834;50.870;4.606;2023-05-12T12:48:15;100969.75;;;14.93;60.37
68822;BME280;55834;50.870;4.606;2023-05-12T12:50:42;100971.41;;;15.16;56.93
68822;BME280;55834;50.870;4.606;2023-05-12T12:53:08;100976.34;;;15.25;57.00
68822;BME280;55834;50.870;4.606;2023-05-12T12:55:34;100992.41;;;14.15;59.96
68822;BME280;55834;50.870;4.606;2023-05-12T12:57:59;100991.44;;;14.61;59.64